Latest Weather Observations for Warwick

IDQ60901

Issued at 9:51 am EST Tuesday 17 October 2017 (issued every 10 minutes, with the page automatically refreshed every 10 minutes)

About weather observations | Map of Brisbane area stations | Latest observations for Brisbane area | Other Formats
Station Details ID: 041525 Name: WARWICK Lat: -28.21 Lon: 152.10 Height: 475.4 m
Data from the previous 72 hours. | See also: Recent months at Warwick
Date/Time
EST
Temp
°C
App
Temp
°C
Dew
Point
°C
Rel
Hum
%
Delta-T
°C
Wind Press
QNH
hPa
Press
MSL
hPa
Rain since
9am
mm
Dir  Spd
km/h
Gust
km/h
Spd
kts
Gust
kts
17/09:30am 19.5 17.0 13.5 68 3.5 ESE 19 33 10 18 1022.9 1021.5 0.0
17/09:00am 19.6 16.7 14.0 70 3.3 SE 22 39 12 21 1022.6 1021.1 2.2
17/08:30am 18.5 16.1 13.7 73 2.8 SE 19 30 10 16 1022.4 1020.9 2.2
17/08:00am 19.0 16.6 13.9 72 3.0 SE 19 33 10 18 1022.3 1020.8 2.2
17/07:30am 17.9 15.8 13.6 76 2.5 ESE 17 33 9 18 1022.3 1020.8 2.2
17/07:00am 17.0 14.6 12.8 76 2.4 ESE 17 32 9 17 1021.7 1020.2 2.0
17/06:30am 16.1 14.5 12.7 80 1.9 ESE 13 28 7 15 1021.0 1019.6 2.0
17/06:00am 15.9 13.5 12.7 81 1.8 ESE 17 28 9 15 1020.6 1019.1 2.0
17/05:30am 15.9 14.0 12.9 82 1.7 ESE 15 26 8 14 1020.4 1018.9 2.0
17/05:00am 15.6 13.1 13.5 87 1.2 SE 19 28 10 15 1020.4 1018.9 2.0
17/04:30am 15.7 13.9 13.2 85 1.4 SE 15 26 8 14 1020.3 1018.8 2.0
17/04:00am 15.7 14.2 13.2 85 1.4 ESE 13 22 7 12 1020.2 1018.7 2.0
17/03:30am 15.8 13.8 12.8 82 1.7 ESE 15 26 8 14 1020.0 1018.5 2.0
17/03:00am 16.0 14.1 13.0 82 1.7 ESE 15 24 8 13 1020.1 1018.6 2.0
17/02:30am 16.2 13.9 13.0 81 1.8 ESE 17 32 9 17 1020.1 1018.6 2.0
17/02:00am 15.9 15.0 13.8 87 1.2 ESE 11 19 6 10 1020.2 1018.7 2.0
17/01:30am 15.7 14.9 14.0 90 1.0 ESE 11 17 6 9 1020.5 1019.0 2.0
17/01:00am 15.7 15.7 14.3 91 0.8 ESE 7 13 4 7 1021.0 1019.6 2.0
17/12:30am 15.9 15.6 14.4 91 0.9 ESE 9 22 5 12 1021.2 1019.8 2.0
17/12:00am 15.9 14.5 14.5 91 0.8 E 15 19 8 10 1021.4 1020.0 2.0
 
Date/Time
EST
Temp
°C
App
Temp
°C
Dew
Point
°C
Rel
Hum
%
Delta-T
°C
Wind Press
QNH
hPa
Press
MSL
hPa
Rain since
9am
mm
Dir  Spd
km/h
Gust
km/h
Spd
kts
Gust
kts
16/11:30pm 15.8 15.6 14.6 93 0.7 E 9 15 5 8 1021.8 1020.3 2.0
16/11:00pm 15.8 14.5 14.8 94 0.6 E 15 20 8 11 1022.2 1020.7 2.0
16/10:30pm 15.8 16.1 15.1 96 0.4 E 7 11 4 6 1022.2 1020.7 1.8
16/10:00pm 15.7 15.7 15.2 97 0.3 ESE 9 15 5 8 1022.2 1020.7 1.2
16/09:30pm 15.6 14.8 15.1 97 0.3 SE 13 20 7 11 1022.2 1020.7 0.2
16/09:00pm 16.0 15.8 14.8 93 0.7 ESE 9 19 5 10 1022.0 1020.5 0.0
16/08:30pm 16.4 15.3 14.3 87 1.2 SE 13 19 7 10 1021.9 1020.4 0.0
16/08:00pm 17.2 16.1 13.2 77 2.3 ESE 11 20 6 11 1021.9 1020.4 0.0
16/07:30pm 16.8 15.5 12.5 76 2.4 ESE 11 20 6 11 1021.4 1020.0 0.0
16/07:00pm 16.7 15.7 13.4 81 1.9 SE 11 20 6 11 1021.0 1019.6 0.0
16/06:30pm 17.1 16.3 14.0 82 1.8 SE 11 17 6 9 1020.7 1019.2 0.0
16/06:00pm 17.3 17.2 14.0 81 1.9 ESE 7 15 4 8 1020.7 1019.2 0.0
16/05:30pm 17.9 16.6 13.8 77 2.4 ESE 13 24 7 13 1020.3 1018.8 0.0
16/05:00pm 17.7 16.3 14.6 82 1.8 SE 15 24 8 13 1020.1 1018.6 0.0
16/04:30pm 17.5 15.4 14.6 83 1.7 SE 19 28 10 15 1019.9 1018.4 0.0
16/04:00pm 19.5 17.8 13.5 68 3.5 ESE 15 26 8 14 1019.5 1018.0 0.0
16/03:30pm 19.8 17.6 13.4 66 3.7 SE 17 26 9 14 1019.2 1017.8 0.0
16/03:00pm 20.5 18.1 12.5 60 4.6 ESE 17 33 9 18 1019.3 1017.9 0.0
16/02:30pm 20.5 17.6 12.9 61 4.4 ESE 20 33 11 18 1019.1 1017.6 0.0
16/02:00pm 20.6 17.7 13.0 61 4.4 SE 20 39 11 21 1019.3 1017.9 0.0
16/01:30pm 19.6 16.6 14.7 73 2.9 SE 24 41 13 22 1019.3 1017.9 0.0
16/01:00pm 20.9 17.2 11.5 55 5.3 ESE 22 39 12 21 1019.3 1017.9 0.0
16/12:30pm 22.1 18.5 11.8 52 5.9 ESE 22 39 12 21 1019.6 1018.1 0.0
16/12:00pm 22.9 19.9 12.4 51 6.1 ESE 20 41 11 22 1019.9 1018.4 0.0
16/11:30am 21.9 18.9 12.4 54 5.5 ESE 20 35 11 19 1020.4 1018.9 0.0
16/11:00am 21.8 19.3 14.0 61 4.6 ESE 20 33 11 18 1020.5 1019.0 0.0
16/10:30am 22.3 18.7 12.9 55 5.5 ESE 24 41 13 22 1020.8 1019.3 0.0
16/10:00am 21.6 19.1 14.0 62 4.5 ESE 20 39 11 21 1020.8 1019.3 0.0
16/09:30am 21.2 18.9 14.1 64 4.2 ESE 19 39 10 21 1021.0 1019.6 0.0
16/09:00am 19.2 17.0 15.0 76 2.5 SE 20 32 11 17 1020.6 1019.1 0.6
16/08:30am 17.5 15.1 15.3 87 1.3 SE 22 33 12 18 1020.6 1019.1 0.6
16/08:00am 16.7 15.7 15.5 93 0.7 SE 15 22 8 12 1020.7 1019.2 0.6
16/07:30am 16.2 14.1 14.7 91 0.9 SE 19 26 10 14 1020.5 1019.0 0.6
16/07:00am 15.9 14.5 14.5 91 0.8 SE 15 28 8 15 1020.3 1018.8 0.6
16/06:30am 15.5 14.5 14.5 94 0.6 SE 13 19 7 10 1020.0 1018.5 0.6
16/06:00am 15.5 15.1 14.1 91 0.8 ESE 9 19 5 10 1019.5 1018.0 0.4
16/05:30am 15.0 15.0 14.1 94 0.5 ESE 7 17 4 9 1019.3 1017.9 0.4
16/05:00am 15.2 13.6 14.0 92 0.7 SE 15 22 8 12 1018.7 1017.2 0.4
16/04:30am 15.4 14.1 13.7 90 1.0 SE 13 20 7 11 1018.6 1017.1 0.4
16/04:00am 15.3 13.6 13.6 90 1.0 SE 15 22 8 12 1018.2 1016.7 0.4
16/03:30am 15.3 13.2 13.6 90 1.0 SE 17 22 9 12 1017.9 1016.4 0.4
16/03:00am 15.2 13.4 13.3 88 1.1 SE 15 22 8 12 1018.0 1016.5 0.4
16/02:30am 15.2 13.7 13.1 87 1.2 SE 13 24 7 13 1018.2 1016.7 0.4
16/02:00am 14.8 12.6 13.4 91 0.8 SE 17 24 9 13 1018.1 1016.6 0.4
16/01:30am 14.9 13.8 13.1 89 1.0 SE 11 20 6 11 1018.8 1017.3 0.4
16/01:00am 14.9 13.4 13.1 89 1.0 SE 13 22 7 12 1019.2 1017.8 0.4
16/12:30am 14.5 12.7 13.4 93 0.6 SE 15 20 8 11 1019.7 1018.2 0.4
16/12:00am 14.4 12.7 13.5 94 0.5 SE 15 26 8 14 1019.9 1018.4 0.4
 
Date/Time
EST
Temp
°C
App
Temp
°C
Dew
Point
°C
Rel
Hum
%
Delta-T
°C
Wind Press
QNH
hPa
Press
MSL
hPa
Rain since
9am
mm
Dir  Spd
km/h
Gust
km/h
Spd
kts
Gust
kts
15/11:30pm 14.6 13.6 13.5 93 0.6 ESE 11 22 6 12 1020.3 1018.8 0.4
15/11:00pm 14.7 13.2 13.1 90 0.9 ESE 13 22 7 12 1020.6 1019.1 0.4
15/10:30pm 14.7 12.9 13.3 91 0.8 SE 15 28 8 15 1020.8 1019.3 0.4
15/10:00pm 15.0 14.0 13.4 90 0.9 ESE 11 20 6 11 1020.5 1019.0 0.4
15/09:30pm 15.3 13.1 13.4 88 1.1 SE 17 28 9 15 1020.4 1018.9 0.2
15/09:00pm 15.3 14.1 12.8 85 1.4 ESE 11 19 6 10 1020.5 1019.0 0.2
15/08:30pm 15.3 13.6 12.4 83 1.6 ESE 13 26 7 14 1020.4 1018.9 0.2
15/08:00pm 15.1 12.9 12.0 82 1.7 ESE 15 28 8 15 1020.4 1018.9 0.2
15/07:30pm 15.1 13.4 12.6 85 1.4 SE 13 24 7 13 1020.2 1018.7 0.2
15/07:00pm 15.0 13.0 12.7 86 1.3 SE 15 30 8 16 1020.0 1018.5 0.2
15/06:30pm 15.0 13.3 12.5 85 1.4 ESE 13 20 7 11 1019.6 1018.1 0.2
15/06:00pm 15.1 13.6 13.0 87 1.2 ESE 13 20 7 11 1019.2 1017.8 0.2
15/05:30pm 15.3 13.7 12.8 85 1.4 SE 13 24 7 13 1019.0 1017.5 0.2
15/05:00pm 15.2 13.6 12.7 85 1.4 ESE 13 24 7 13 1018.9 1017.4 0.0
15/04:30pm 15.9 13.3 12.1 78 2.1 ESE 17 32 9 17 1018.6 1017.1 0.0
15/04:00pm 16.3 14.4 13.0 81 1.9 SE 15 32 8 17 1018.3 1016.8 0.0
15/03:30pm 15.9 13.6 14.0 88 1.1 SE 19 32 10 17 1018.1 1016.6 0.0
15/03:00pm 17.4 14.9 13.4 77 2.3 SE 19 30 10 16 1017.8 1016.3 0.0
15/02:30pm 17.7 15.5 13.2 75 2.6 SE 17 32 9 17 1017.7 1016.2 0.0
15/02:00pm 17.4 15.6 13.4 77 2.3 SE 15 32 8 17 1017.9 1016.4 0.0
15/01:30pm 17.0 14.9 12.4 74 2.6 ESE 15 24 8 13 1018.1 1016.6 0.0
15/01:00pm 16.5 14.0 12.2 76 2.4 ESE 17 32 9 17 1018.4 1016.9 0.0
15/12:30pm 17.3 14.0 11.5 68 3.2 ESE 20 39 11 21 1018.4 1016.9 0.0
15/12:00pm 16.9 13.7 13.0 78 2.2 SE 22 33 12 18 1018.8 1017.3 0.0
15/11:30am 17.3 14.3 12.7 74 2.6 SE 20 37 11 20 1018.9 1017.4 0.0
15/11:00am 16.9 13.9 13.8 82 1.8 SE 22 33 12 18 1019.1 1017.6 0.0
15/10:30am 17.0 13.9 13.5 80 2.0 SE 22 35 12 19 1019.2 1017.8 0.0
15/10:00am 17.0 14.9 13.5 80 2.0 ESE 17 33 9 18 1019.3 1017.9 0.0
15/09:30am 16.5 14.8 13.7 83 1.6 ESE 15 22 8 12 1019.3 1017.9 0.0
15/09:00am 15.3 12.6 13.5 89 1.0 SE 20 33 11 18 1019.3 1017.9 6.8
15/08:30am 14.9 12.6 14.0 94 0.5 SE 19 28 10 15 1019.3 1017.9 6.6
15/08:00am 15.0 12.7 14.0 94 0.6 SSE 19 33 10 18 1018.9 1017.4 6.4
15/07:30am 15.6 13.3 14.2 91 0.8 SE 19 33 10 18 1018.5 1017.0 6.2
15/07:00am 15.8 14.7 14.2 90 0.9 SE 13 20 7 11 1018.3 1016.8 6.2
15/06:30am 15.8 14.6 13.9 88 1.1 SE 13 19 7 10 1017.8 1016.3 6.2
15/06:00am 15.6 14.9 14.4 93 0.7 SE 11 17 6 9 1017.5 1016.0 6.2
15/05:30am 15.4 15.1 14.4 94 0.6 ESE 9 15 5 8 1017.0 1015.5 6.2
15/05:00am 15.3 14.2 14.3 94 0.6 SE 13 19 7 10 1016.6 1015.1 6.2
15/04:30am 15.2 15.9 14.5 96 0.4 E 4 11 2 6 1016.8 1015.3 6.0
15/04:00am 15.3 15.0 14.4 94 0.5 SE 9 13 5 7 1016.6 1015.1 5.8
15/03:30am 15.2 15.2 14.3 94 0.5 SE 7 15 4 8 1016.6 1015.1 5.8
15/03:00am 15.2 14.5 14.2 94 0.6 SE 11 20 6 11 1016.6 1015.1 5.6
15/02:30am 15.2 14.1 14.2 94 0.6 SE 13 22 7 12 1017.0 1015.5 5.6
15/02:00am 15.1 13.5 13.9 92 0.7 SE 15 22 8 12 1017.3 1015.7 5.6
15/01:30am 14.8 14.3 13.9 94 0.5 ESE 9 17 5 9 1017.7 1016.2 5.6
15/01:00am 14.8 13.2 13.9 94 0.5 SE 15 24 8 13 1018.2 1016.7 5.6
15/12:30am 15.1 13.5 13.9 92 0.7 SE 15 24 8 13 1018.3 1016.8 5.4
15/12:00am 15.4 13.8 14.0 91 0.8 SE 15 24 8 13 1018.4 1016.9 5.4
 
Date/Time
EST
Temp
°C
App
Temp
°C
Dew
Point
°C
Rel
Hum
%
Delta-T
°C
Wind Press
QNH
hPa
Press
MSL
hPa
Rain since
9am
mm
Dir  Spd
km/h
Gust
km/h
Spd
kts
Gust
kts
14/11:30pm 15.2 14.0 14.0 92 0.7 SE 13 19 7 10 1018.3 1016.8 5.4
14/11:00pm 14.9 13.7 14.0 94 0.5 SE 13 20 7 11 1018.7 1017.2 5.4
14/10:30pm 15.0 13.0 14.0 94 0.6 SE 17 24 9 13 1018.9 1017.4 5.4
14/10:00pm 14.8 12.8 13.9 94 0.5 SE 17 26 9 14 1019.0 1017.5 5.4
14/09:30pm 14.8 13.1 13.6 92 0.7 SE 15 28 8 15 1019.0 1017.5 5.0
14/09:00pm 14.7 13.8 13.8 94 0.5 ESE 11 22 6 12 1019.0 1017.5 5.0
14/08:30pm 14.7 12.7 13.8 94 0.5 SE 17 32 9 17 1019.1 1017.6 4.8
14/08:00pm 14.8 13.2 13.9 94 0.5 SE 15 26 8 14 1019.1 1017.6 4.0
14/07:30pm 15.1 12.7 13.9 92 0.7 SE 19 32 10 17 1018.7 1017.2 3.8
14/07:00pm 15.4 12.9 14.2 92 0.7 SE 20 35 11 19 1018.4 1016.9 3.4
14/06:30pm 15.6 13.5 14.7 94 0.5 SSE 19 33 10 18 1017.9 1016.4 3.4
14/06:00pm 15.9 13.5 14.5 91 0.8 SE 20 32 11 17 1017.5 1016.0 2.6
14/05:30pm 15.9 13.7 14.9 94 0.6 SE 20 32 11 17 1016.8 1015.3 2.2
14/05:00pm 16.2 14.0 15.0 93 0.7 SE 20 33 11 18 1016.3 1014.8 1.8
14/04:30pm 16.7 13.8 15.2 91 0.9 SSE 24 37 13 20 1016.4 1014.9 1.6
14/04:00pm 17.6 15.0 15.9 90 1.0 SE 24 39 13 21 1015.7 1014.2 1.6
14/03:30pm 18.3 18.1 16.7 90 1.0 SE 13 20 7 11 1015.5 1014.0 1.6
14/03:00pm 17.9 18.0 16.4 91 0.9 SE 11 20 6 11 1014.6 1013.1 0.8
14/02:32pm 20.4 17.4 14.9 70 3.3 SE 24 46 13 25 1014.7 1013.2 0.0
14/02:30pm 20.7 18.1 14.9 69 3.5 SE 22 46 12 25 1014.7 1013.2 0.0
14/02:29pm 20.9 18.8 15.3 70 3.4 SE 20 46 11 25 1014.7 1013.2 0.0
14/02:00pm 22.9 22.2 16.5 67 4.0 SSE 15 22 8 12 1014.0 1012.5 0.0
14/01:30pm 23.0 22.9 15.9 64 4.4 SE 11 19 6 10 1014.5 1013.0 0.0
14/01:00pm 23.5 21.8 14.8 58 5.3 SE 17 26 9 14 1014.7 1013.2 0.0
14/12:30pm 23.7 21.9 15.4 59 5.1 SE 19 30 10 16 1014.8 1013.3 0.0
14/12:00pm 24.2 22.2 15.6 58 5.3 SSE 20 32 11 17 1015.2 1013.6 0.0
14/11:30am 24.0 22.7 15.9 60 5.0 SSE 17 28 9 15 1015.5 1014.0 0.0
14/11:00am 24.0 22.6 16.6 63 4.6 SSE 19 32 10 17 1015.8 1014.3 0.0
14/10:30am 23.1 21.7 16.5 66 4.1 SSE 19 30 10 16 1016.1 1014.6 0.0
14/10:00am 22.9 21.6 16.8 68 3.8 S 19 30 10 16 1016.5 1015.0 0.0

Latest Capital City Observations: Canberra | Sydney | Melbourne | Brisbane | Adelaide | Perth | Hobart | Darwin

Other Formats:

Comma delimited format used in spreadsheet applications
http://www.bom.gov.au/fwo/IDQ60901/IDQ60901.94555.axf

JavaScript Object Notation format (JSON) in row-major order
http://www.bom.gov.au/fwo/IDQ60901/IDQ60901.94555.json